sensor_id;sensor_type;location;lat;lon;timestamp;P1;durP1;ratioP1;P2;durP2;ratioP2
66721;SDS011;53633;49.932;10.884;2023-03-04T00:01:02;17.23;;;6.95;;
66721;SDS011;53633;49.932;10.884;2023-03-04T00:03:29;17.73;;;6.13;;
66721;SDS011;53633;49.932;10.884;2023-03-04T00:05:56;17.17;;;6.60;;
66721;SDS011;53633;49.932;10.884;2023-03-04T00:08:22;17.93;;;7.07;;
66721;SDS011;53633;49.932;10.884;2023-03-04T00:10:50;16.98;;;7.00;;
66721;SDS011;53633;49.932;10.884;2023-03-04T00:13:17;19.08;;;6.95;;
66721;SDS011;53633;49.932;10.884;2023-03-04T00:15:44;21.38;;;7.32;;
66721;SDS011;53633;49.932;10.884;2023-03-04T00:18:12;18.27;;;6.60;;
66721;SDS011;53633;49.932;10.884;2023-03-04T00:20:39;16.20;;;7.13;;
66721;SDS011;53633;49.932;10.884;2023-03-04T00:23:06;19.02;;;6.72;;
66721;SDS011;53633;49.932;10.884;2023-03-04T00:25:33;18.20;;;6.68;;
66721;SDS011;53633;49.932;10.884;2023-03-04T00:28:01;16.63;;;6.22;;
66721;SDS011;53633;49.932;10.884;2023-03-04T00:30:27;17.63;;;6.88;;
66721;SDS011;53633;49.932;10.884;2023-03-04T00:32:54;16.97;;;6.03;;
66721;SDS011;53633;49.932;10.884;2023-03-04T00:35:21;15.85;;;6.35;;
66721;SDS011;53633;49.932;10.884;2023-03-04T00:37:48;16.30;;;6.38;;
66721;SDS011;53633;49.932;10.884;2023-03-04T00:40:14;19.58;;;6.35;;
66721;SDS011;53633;49.932;10.884;2023-03-04T00:42:41;19.50;;;6.32;;
66721;SDS011;53633;49.932;10.884;2023-03-04T00:45:10;16.23;;;6.07;;
66721;SDS011;53633;49.932;10.884;2023-03-04T00:47:37;17.45;;;6.65;;
66721;SDS011;53633;49.932;10.884;2023-03-04T00:50:04;16.05;;;6.32;;
66721;SDS011;53633;49.932;10.884;2023-03-04T00:52:31;18.45;;;6.30;;
66721;SDS011;53633;49.932;10.884;2023-03-04T00:54:58;16.45;;;6.28;;
66721;SDS011;53633;49.932;10.884;2023-03-04T00:57:25;20.03;;;7.13;;
66721;SDS011;53633;49.932;10.884;2023-03-04T00:59:51;18.33;;;6.22;;
66721;SDS011;53633;49.932;10.884;2023-03-04T01:02:20;15.45;;;6.38;;
66721;SDS011;53633;49.932;10.884;2023-03-04T01:04:46;17.27;;;6.90;;
66721;SDS011;53633;49.932;10.884;2023-03-04T01:07:13;18.00;;;6.28;;
66721;SDS011;53633;49.932;10.884;2023-03-04T01:09:40;18.90;;;6.20;;
66721;SDS011;53633;49.932;10.884;2023-03-04T01:12:07;19.75;;;6.15;;
66721;SDS011;53633;49.932;10.884;2023-03-04T01:14:33;16.60;;;6.20;;
66721;SDS011;53633;49.932;10.884;2023-03-04T01:17:00;17.25;;;6.45;;
66721;SDS011;53633;49.932;10.884;2023-03-04T01:19:28;18.02;;;6.18;;
66721;SDS011;53633;49.932;10.884;2023-03-04T01:21:55;18.50;;;6.43;;
66721;SDS011;53633;49.932;10.884;2023-03-04T01:24:22;17.63;;;6.10;;
66721;SDS011;53633;49.932;10.884;2023-03-04T01:26:49;15.98;;;6.30;;
66721;SDS011;53633;49.932;10.884;2023-03-04T01:29:15;16.40;;;5.95;;
66721;SDS011;53633;49.932;10.884;2023-03-04T01:31:42;16.98;;;6.60;;
66721;SDS011;53633;49.932;10.884;2023-03-04T01:34:09;21.93;;;7.47;;
66721;SDS011;53633;49.932;10.884;2023-03-04T01:36:37;18.52;;;7.07;;
66721;SDS011;53633;49.932;10.884;2023-03-04T01:39:04;17.13;;;5.80;;
66721;SDS011;53633;49.932;10.884;2023-03-04T01:41:31;19.15;;;6.35;;
66721;SDS011;53633;49.932;10.884;2023-03-04T01:43:58;17.85;;;6.75;;
66721;SDS011;53633;49.932;10.884;2023-03-04T01:46:26;19.20;;;6.50;;
66721;SDS011;53633;49.932;10.884;2023-03-04T01:48:53;17.13;;;6.22;;
66721;SDS011;53633;49.932;10.884;2023-03-04T01:51:20;15.38;;;5.57;;
66721;SDS011;53633;49.932;10.884;2023-03-04T01:53:49;18.25;;;6.43;;
66721;SDS011;53633;49.932;10.884;2023-03-04T01:56:18;18.42;;;6.68;;
66721;SDS011;53633;49.932;10.884;2023-03-04T02:01:32;16.95;;;6.47;;
66721;SDS011;53633;49.932;10.884;2023-03-04T02:03:59;14.40;;;5.63;;
66721;SDS011;53633;49.932;10.884;2023-03-04T02:06:26;18.35;;;5.95;;
66721;SDS011;53633;49.932;10.884;2023-03-04T02:08:54;17.95;;;7.07;;
66721;SDS011;53633;49.932;10.884;2023-03-04T02:11:20;18.23;;;6.47;;
66721;SDS011;53633;49.932;10.884;2023-03-04T02:13:47;19.33;;;6.78;;
66721;SDS011;53633;49.932;10.884;2023-03-04T02:16:14;16.92;;;6.00;;
66721;SDS011;53633;49.932;10.884;2023-03-04T02:18:41;15.15;;;5.75;;
66721;SDS011;53633;49.932;10.884;2023-03-04T02:21:09;16.15;;;6.00;;
66721;SDS011;53633;49.932;10.884;2023-03-04T02:23:43;18.30;;;6.87;;
66721;SDS011;53633;49.932;10.884;2023-03-04T02:26:16;15.35;;;6.35;;
66721;SDS011;53633;49.932;10.884;2023-03-04T02:28:44;17.40;;;6.35;;
66721;SDS011;53633;49.932;10.884;2023-03-04T02:31:19;18.77;;;5.85;;
66721;SDS011;53633;49.932;10.884;2023-03-04T02:33:49;16.77;;;6.18;;
66721;SDS011;53633;49.932;10.884;2023-03-04T02:36:17;16.73;;;5.63;;
66721;SDS011;53633;49.932;10.884;2023-03-04T02:38:44;19.00;;;6.13;;
66721;SDS011;53633;49.932;10.884;2023-03-04T02:41:11;18.13;;;7.28;;
66721;SDS011;53633;49.932;10.884;2023-03-04T02:43:42;18.85;;;6.18;;
66721;SDS011;53633;49.932;10.884;2023-03-04T02:46:15;16.42;;;6.15;;
66721;SDS011;53633;49.932;10.884;2023-03-04T02:48:41;17.00;;;6.17;;
66721;SDS011;53633;49.932;10.884;2023-03-04T02:51:08;18.80;;;6.45;;
66721;SDS011;53633;49.932;10.884;2023-03-04T02:53:35;16.92;;;6.32;;
66721;SDS011;53633;49.932;10.884;2023-03-04T02:56:02;15.48;;;5.57;;
66721;SDS011;53633;49.932;10.884;2023-03-04T02:58:29;18.58;;;6.55;;
66721;SDS011;53633;49.932;10.884;2023-03-04T03:00:57;18.50;;;6.73;;
66721;SDS011;53633;49.932;10.884;2023-03-04T03:03:24;17.13;;;6.07;;
66721;SDS011;53633;49.932;10.884;2023-03-04T03:05:51;18.95;;;6.32;;
66721;SDS011;53633;49.932;10.884;2023-03-04T03:08:19;17.83;;;6.80;;
66721;SDS011;53633;49.932;10.884;2023-03-04T03:10:46;17.50;;;6.78;;
66721;SDS011;53633;49.932;10.884;2023-03-04T03:13:12;21.97;;;6.70;;
66721;SDS011;53633;49.932;10.884;2023-03-04T03:15:39;18.63;;;6.15;;
66721;SDS011;53633;49.932;10.884;2023-03-04T03:18:07;19.67;;;6.85;;
66721;SDS011;53633;49.932;10.884;2023-03-04T03:20:34;19.92;;;6.35;;
66721;SDS011;53633;49.932;10.884;2023-03-04T03:23:02;17.50;;;6.15;;
66721;SDS011;53633;49.932;10.884;2023-03-04T03:25:29;21.40;;;7.27;;
66721;SDS011;53633;49.932;10.884;2023-03-04T03:27:56;18.77;;;6.47;;
66721;SDS011;53633;49.932;10.884;2023-03-04T03:30:22;15.73;;;5.57;;
66721;SDS011;53633;49.932;10.884;2023-03-04T03:32:49;20.88;;;6.95;;
66721;SDS011;53633;49.932;10.884;2023-03-04T03:35:17;15.73;;;5.68;;
66721;SDS011;53633;49.932;10.884;2023-03-04T03:37:44;15.17;;;6.00;;
66721;SDS011;53633;49.932;10.884;2023-03-04T03:40:11;16.70;;;6.18;;
66721;SDS011;53633;49.932;10.884;2023-03-04T03:42:39;18.10;;;6.70;;
66721;SDS011;53633;49.932;10.884;2023-03-04T03:45:06;17.05;;;6.80;;
66721;SDS011;53633;49.932;10.884;2023-03-04T03:47:33;18.20;;;7.00;;
66721;SDS011;53633;49.932;10.884;2023-03-04T03:50:00;20.03;;;6.63;;
66721;SDS011;53633;49.932;10.884;2023-03-04T03:52:28;20.23;;;6.75;;
66721;SDS011;53633;49.932;10.884;2023-03-04T03:54:55;16.70;;;6.10;;
66721;SDS011;53633;49.932;10.884;2023-03-04T03:57:21;18.42;;;6.80;;
66721;SDS011;53633;49.932;10.884;2023-03-04T03:59:48;21.25;;;6.90;;
66721;SDS011;53633;49.932;10.884;2023-03-04T04:02:15;19.73;;;7.23;;
66721;SDS011;53633;49.932;10.884;2023-03-04T04:04:42;20.10;;;7.05;;
66721;SDS011;53633;49.932;10.884;2023-03-04T04:07:09;23.02;;;8.13;;
66721;SDS011;53633;49.932;10.884;2023-03-04T04:09:37;22.60;;;7.38;;
66721;SDS011;53633;49.932;10.884;2023-03-04T04:12:04;19.27;;;7.30;;
66721;SDS011;53633;49.932;10.884;2023-03-04T04:14:31;22.93;;;8.20;;
66721;SDS011;53633;49.932;10.884;2023-03-04T04:16:58;20.30;;;7.38;;
66721;SDS011;53633;49.932;10.884;2023-03-04T04:19:25;17.60;;;6.13;;
66721;SDS011;53633;49.932;10.884;2023-03-04T04:21:52;17.90;;;6.40;;
66721;SDS011;53633;49.932;10.884;2023-03-04T04:24:18;19.67;;;6.50;;
66721;SDS011;53633;49.932;10.884;2023-03-04T04:26:47;21.17;;;7.63;;
66721;SDS011;53633;49.932;10.884;2023-03-04T04:29:15;20.48;;;6.90;;
66721;SDS011;53633;49.932;10.884;2023-03-04T04:31:42;17.75;;;6.50;;
66721;SDS011;53633;49.932;10.884;2023-03-04T04:34:09;18.38;;;7.03;;
66721;SDS011;53633;49.932;10.884;2023-03-04T04:36:36;16.65;;;6.63;;
66721;SDS011;53633;49.932;10.884;2023-03-04T04:39:03;20.37;;;7.23;;
66721;SDS011;53633;49.932;10.884;2023-03-04T04:41:30;19.20;;;6.90;;
66721;SDS011;53633;49.932;10.884;2023-03-04T04:44:01;20.63;;;7.00;;
66721;SDS011;53633;49.932;10.884;2023-03-04T04:46:28;18.52;;;7.20;;
66721;SDS011;53633;49.932;10.884;2023-03-04T04:48:55;22.63;;;8.15;;
66721;SDS011;53633;49.932;10.884;2023-03-04T04:51:22;23.40;;;8.10;;
66721;SDS011;53633;49.932;10.884;2023-03-04T04:53:48;21.48;;;8.57;;
66721;SDS011;53633;49.932;10.884;2023-03-04T04:56:16;24.73;;;7.95;;
66721;SDS011;53633;49.932;10.884;2023-03-04T04:58:44;22.10;;;7.10;;
66721;SDS011;53633;49.932;10.884;2023-03-04T05:01:13;23.95;;;8.77;;
66721;SDS011;53633;49.932;10.884;2023-03-04T05:03:40;21.33;;;8.00;;
66721;SDS011;53633;49.932;10.884;2023-03-04T05:06:08;21.88;;;7.25;;
66721;SDS011;53633;49.932;10.884;2023-03-04T05:08:36;18.92;;;6.75;;
66721;SDS011;53633;49.932;10.884;2023-03-04T05:11:03;20.45;;;6.53;;
66721;SDS011;53633;49.932;10.884;2023-03-04T05:13:31;20.63;;;7.47;;
66721;SDS011;53633;49.932;10.884;2023-03-04T05:15:58;21.73;;;8.53;;
66721;SDS011;53633;49.932;10.884;2023-03-04T05:18:27;20.65;;;7.35;;
66721;SDS011;53633;49.932;10.884;2023-03-04T05:20:54;19.48;;;6.82;;
66721;SDS011;53633;49.932;10.884;2023-03-04T05:23:22;21.58;;;8.45;;
66721;SDS011;53633;49.932;10.884;2023-03-04T05:25:49;23.38;;;8.95;;
66721;SDS011;53633;49.932;10.884;2023-03-04T05:28:16;22.13;;;7.60;;
66721;SDS011;53633;49.932;10.884;2023-03-04T05:30:44;23.23;;;7.90;;
66721;SDS011;53633;49.932;10.884;2023-03-04T05:33:11;20.92;;;7.80;;
66721;SDS011;53633;49.932;10.884;2023-03-04T05:35:41;18.67;;;6.95;;
66721;SDS011;53633;49.932;10.884;2023-03-04T05:38:09;20.05;;;7.30;;
66721;SDS011;53633;49.932;10.884;2023-03-04T05:40:37;19.73;;;7.57;;
66721;SDS011;53633;49.932;10.884;2023-03-04T05:43:04;23.63;;;7.88;;
66721;SDS011;53633;49.932;10.884;2023-03-04T05:45:31;21.75;;;8.52;;
66721;SDS011;53633;49.932;10.884;2023-03-04T05:47:59;22.58;;;7.50;;
66721;SDS011;53633;49.932;10.884;2023-03-04T05:50:26;23.55;;;8.30;;
66721;SDS011;53633;49.932;10.884;2023-03-04T05:52:54;27.50;;;9.60;;
66721;SDS011;53633;49.932;10.884;2023-03-04T05:55:21;26.63;;;10.40;;
66721;SDS011;53633;49.932;10.884;2023-03-04T05:57:48;24.48;;;8.98;;
66721;SDS011;53633;49.932;10.884;2023-03-04T06:00:14;25.05;;;9.07;;
66721;SDS011;53633;49.932;10.884;2023-03-04T06:02:42;22.38;;;8.45;;
66721;SDS011;53633;49.932;10.884;2023-03-04T06:05:10;25.50;;;8.73;;
66721;SDS011;53633;49.932;10.884;2023-03-04T06:07:38;24.83;;;8.10;;
66721;SDS011;53633;49.932;10.884;2023-03-04T06:10:06;22.27;;;8.43;;
66721;SDS011;53633;49.932;10.884;2023-03-04T06:12:34;25.70;;;9.15;;
66721;SDS011;53633;49.932;10.884;2023-03-04T06:15:01;23.10;;;8.75;;
66721;SDS011;53633;49.932;10.884;2023-03-04T06:17:28;26.30;;;8.63;;
66721;SDS011;53633;49.932;10.884;2023-03-04T06:19:55;25.42;;;8.45;;
66721;SDS011;53633;49.932;10.884;2023-03-04T06:22:22;26.83;;;8.73;;
66721;SDS011;53633;49.932;10.884;2023-03-04T06:24:48;24.77;;;9.63;;
66721;SDS011;53633;49.932;10.884;2023-03-04T06:27:16;24.63;;;8.77;;
66721;SDS011;53633;49.932;10.884;2023-03-04T06:29:43;25.57;;;8.93;;
66721;SDS011;53633;49.932;10.884;2023-03-04T06:32:10;27.05;;;8.88;;
66721;SDS011;53633;49.932;10.884;2023-03-04T06:34:37;23.30;;;8.35;;
66721;SDS011;53633;49.932;10.884;2023-03-04T06:37:03;23.10;;;8.48;;
66721;SDS011;53633;49.932;10.884;2023-03-04T06:39:30;25.80;;;9.20;;
66721;SDS011;53633;49.932;10.884;2023-03-04T06:41:57;24.83;;;9.07;;
66721;SDS011;53633;49.932;10.884;2023-03-04T06:44:25;22.48;;;8.40;;
66721;SDS011;53633;49.932;10.884;2023-03-04T06:46:52;23.35;;;9.05;;
66721;SDS011;53633;49.932;10.884;2023-03-04T06:49:19;24.08;;;8.35;;
66721;SDS011;53633;49.932;10.884;2023-03-04T06:51:46;25.27;;;9.10;;
66721;SDS011;53633;49.932;10.884;2023-03-04T06:54:13;24.10;;;8.47;;
66721;SDS011;53633;49.932;10.884;2023-03-04T06:56:40;24.70;;;8.02;;
66721;SDS011;53633;49.932;10.884;2023-03-04T06:59:06;24.52;;;9.30;;
66721;SDS011;53633;49.932;10.884;2023-03-04T07:01:34;22.17;;;8.80;;
66721;SDS011;53633;49.932;10.884;2023-03-04T07:04:01;28.13;;;9.60;;
66721;SDS011;53633;49.932;10.884;2023-03-04T07:06:28;28.03;;;9.73;;
66721;SDS011;53633;49.932;10.884;2023-03-04T07:08:56;27.33;;;9.35;;
66721;SDS011;53633;49.932;10.884;2023-03-04T07:11:23;24.00;;;8.55;;
66721;SDS011;53633;49.932;10.884;2023-03-04T07:13:50;29.50;;;10.43;;
66721;SDS011;53633;49.932;10.884;2023-03-04T07:16:17;27.42;;;8.93;;
66721;SDS011;53633;49.932;10.884;2023-03-04T07:18:47;21.00;;;8.33;;
66721;SDS011;53633;49.932;10.884;2023-03-04T07:21:14;25.67;;;9.32;;
66721;SDS011;53633;49.932;10.884;2023-03-04T07:23:41;26.42;;;10.15;;
66721;SDS011;53633;49.932;10.884;2023-03-04T07:26:08;23.98;;;9.48;;
66721;SDS011;53633;49.932;10.884;2023-03-04T07:28:35;22.63;;;9.50;;
66721;SDS011;53633;49.932;10.884;2023-03-04T07:31:12;24.67;;;8.70;;
66721;SDS011;53633;49.932;10.884;2023-03-04T07:33:47;29.35;;;9.77;;
66721;SDS011;53633;49.932;10.884;2023-03-04T07:36:14;23.10;;;8.05;;
66721;SDS011;53633;49.932;10.884;2023-03-04T07:38:42;24.48;;;9.13;;
66721;SDS011;53633;49.932;10.884;2023-03-04T07:41:09;23.38;;;8.75;;
66721;SDS011;53633;49.932;10.884;2023-03-04T07:43:36;23.07;;;9.10;;
66721;SDS011;53633;49.932;10.884;2023-03-04T07:46:02;23.38;;;9.07;;
66721;SDS011;53633;49.932;10.884;2023-03-04T07:48:29;23.10;;;9.00;;
66721;SDS011;53633;49.932;10.884;2023-03-04T07:51:07;25.73;;;8.80;;
66721;SDS011;53633;49.932;10.884;2023-03-04T07:53:36;25.48;;;9.35;;
66721;SDS011;53633;49.932;10.884;2023-03-04T07:56:05;22.30;;;9.57;;
66721;SDS011;53633;49.932;10.884;2023-03-04T07:58:33;24.35;;;9.20;;
66721;SDS011;53633;49.932;10.884;2023-03-04T08:01:00;27.02;;;9.90;;
66721;SDS011;53633;49.932;10.884;2023-03-04T08:03:27;23.67;;;8.98;;
66721;SDS011;53633;49.932;10.884;2023-03-04T08:05:54;26.65;;;8.80;;
66721;SDS011;53633;49.932;10.884;2023-03-04T08:08:22;23.03;;;9.27;;
66721;SDS011;53633;49.932;10.884;2023-03-04T08:10:48;26.25;;;10.13;;
66721;SDS011;53633;49.932;10.884;2023-03-04T08:13:15;26.80;;;8.85;;
66721;SDS011;53633;49.932;10.884;2023-03-04T08:15:42;24.05;;;8.05;;
66721;SDS011;53633;49.932;10.884;2023-03-04T08:18:09;24.20;;;8.68;;
66721;SDS011;53633;49.932;10.884;2023-03-04T08:20:35;26.67;;;8.70;;
66721;SDS011;53633;49.932;10.884;2023-03-04T08:23:03;25.30;;;10.35;;
66721;SDS011;53633;49.932;10.884;2023-03-04T08:25:31;26.35;;;10.48;;
66721;SDS011;53633;49.932;10.884;2023-03-04T08:27:58;28.95;;;10.68;;
66721;SDS011;53633;49.932;10.884;2023-03-04T08:30:25;25.08;;;9.55;;
66721;SDS011;53633;49.932;10.884;2023-03-04T08:32:51;23.27;;;9.30;;
66721;SDS011;53633;49.932;10.884;2023-03-04T08:35:18;21.58;;;9.10;;
66721;SDS011;53633;49.932;10.884;2023-03-04T08:37:45;24.23;;;9.57;;
66721;SDS011;53633;49.932;10.884;2023-03-04T08:40:12;27.00;;;10.65;;
66721;SDS011;53633;49.932;10.884;2023-03-04T08:42:41;22.95;;;9.85;;
66721;SDS011;53633;49.932;10.884;2023-03-04T08:45:08;26.80;;;9.33;;
66721;SDS011;53633;49.932;10.884;2023-03-04T08:47:35;26.55;;;9.50;;
66721;SDS011;53633;49.932;10.884;2023-03-04T08:50:02;22.00;;;8.60;;
66721;SDS011;53633;49.932;10.884;2023-03-04T08:52:30;24.05;;;9.40;;
66721;SDS011;53633;49.932;10.884;2023-03-04T08:54:56;22.67;;;8.43;;
66721;SDS011;53633;49.932;10.884;2023-03-04T08:57:23;24.43;;;9.83;;
66721;SDS011;53633;49.932;10.884;2023-03-04T08:59:51;24.48;;;9.18;;
66721;SDS011;53633;49.932;10.884;2023-03-04T09:02:18;24.08;;;10.00;;
66721;SDS011;53633;49.932;10.884;2023-03-04T09:04:45;25.75;;;9.20;;
66721;SDS011;53633;49.932;10.884;2023-03-04T09:07:12;24.85;;;9.45;;
66721;SDS011;53633;49.932;10.884;2023-03-04T09:09:38;24.02;;;9.40;;
66721;SDS011;53633;49.932;10.884;2023-03-04T09:12:06;26.33;;;8.68;;
66721;SDS011;53633;49.932;10.884;2023-03-04T09:14:33;23.33;;;8.50;;
66721;SDS011;53633;49.932;10.884;2023-03-04T09:17:01;25.40;;;9.30;;
66721;SDS011;53633;49.932;10.884;2023-03-04T09:19:29;22.35;;;8.38;;
66721;SDS011;53633;49.932;10.884;2023-03-04T09:21:56;23.07;;;8.90;;
66721;SDS011;53633;49.932;10.884;2023-03-04T09:24:22;23.48;;;9.13;;
66721;SDS011;53633;49.932;10.884;2023-03-04T09:26:49;23.92;;;9.57;;
66721;SDS011;53633;49.932;10.884;2023-03-04T09:29:17;25.40;;;8.90;;
66721;SDS011;53633;49.932;10.884;2023-03-04T09:31:44;26.50;;;9.73;;
66721;SDS011;53633;49.932;10.884;2023-03-04T09:34:12;21.10;;;8.30;;
66721;SDS011;53633;49.932;10.884;2023-03-04T09:36:39;21.70;;;8.90;;
66721;SDS011;53633;49.932;10.884;2023-03-04T09:39:06;19.50;;;7.93;;
66721;SDS011;53633;49.932;10.884;2023-03-04T09:41:35;21.80;;;8.82;;
66721;SDS011;53633;49.932;10.884;2023-03-04T09:44:05;20.20;;;7.82;;
66721;SDS011;53633;49.932;10.884;2023-03-04T09:46:39;17.98;;;7.50;;
66721;SDS011;53633;49.932;10.884;2023-03-04T09:49:08;22.00;;;8.07;;
66721;SDS011;53633;49.932;10.884;2023-03-04T09:51:42;19.42;;;8.40;;
66721;SDS011;53633;49.932;10.884;2023-03-04T09:54:14;20.00;;;7.10;;
66721;SDS011;53633;49.932;10.884;2023-03-04T09:56:46;19.33;;;6.95;;
66721;SDS011;53633;49.932;10.884;2023-03-04T09:59:17;20.40;;;7.97;;
66721;SDS011;53633;49.932;10.884;2023-03-04T10:01:51;20.20;;;7.70;;
66721;SDS011;53633;49.932;10.884;2023-03-04T10:04:23;22.00;;;7.50;;
66721;SDS011;53633;49.932;10.884;2023-03-04T10:06:58;19.98;;;7.85;;
66721;SDS011;53633;49.932;10.884;2023-03-04T10:09:27;17.25;;;7.30;;
66721;SDS011;53633;49.932;10.884;2023-03-04T10:11:59;17.17;;;6.90;;
66721;SDS011;53633;49.932;10.884;2023-03-04T10:14:31;18.02;;;7.00;;
66721;SDS011;53633;49.932;10.884;2023-03-04T10:17:03;21.95;;;6.72;;
66721;SDS011;53633;49.932;10.884;2023-03-04T10:19:37;18.75;;;7.30;;
66721;SDS011;53633;49.932;10.884;2023-03-04T10:22:17;22.45;;;6.65;;
66721;SDS011;53633;49.932;10.884;2023-03-04T10:24:55;19.70;;;7.10;;
66721;SDS011;53633;49.932;10.884;2023-03-04T10:27:23;18.88;;;7.28;;
66721;SDS011;53633;49.932;10.884;2023-03-04T10:29:51;21.25;;;8.57;;
66721;SDS011;53633;49.932;10.884;2023-03-04T10:32:18;22.45;;;8.02;;
66721;SDS011;53633;49.932;10.884;2023-03-04T10:34:46;21.98;;;8.02;;
66721;SDS011;53633;49.932;10.884;2023-03-04T10:37:13;21.20;;;8.17;;
66721;SDS011;53633;49.932;10.884;2023-03-04T10:39:42;25.02;;;7.88;;
66721;SDS011;53633;49.932;10.884;2023-03-04T10:42:21;22.38;;;8.27;;
66721;SDS011;53633;49.932;10.884;2023-03-04T10:44:53;19.02;;;6.90;;
66721;SDS011;53633;49.932;10.884;2023-03-04T10:47:22;19.45;;;7.32;;
66721;SDS011;53633;49.932;10.884;2023-03-04T10:49:51;22.60;;;7.07;;
66721;SDS011;53633;49.932;10.884;2023-03-04T10:52:22;27.05;;;8.05;;
66721;SDS011;53633;49.932;10.884;2023-03-04T10:54:54;26.33;;;8.82;;
66721;SDS011;53633;49.932;10.884;2023-03-04T10:57:23;19.58;;;7.75;;
66721;SDS011;53633;49.932;10.884;2023-03-04T10:59:55;22.20;;;7.93;;
66721;SDS011;53633;49.932;10.884;2023-03-04T11:02:24;18.73;;;7.57;;
66721;SDS011;53633;49.932;10.884;2023-03-04T11:04:56;16.38;;;6.90;;
66721;SDS011;53633;49.932;10.884;2023-03-04T11:07:35;18.88;;;6.93;;
66721;SDS011;53633;49.932;10.884;2023-03-04T11:10:22;21.65;;;6.60;;
66721;SDS011;53633;49.932;10.884;2023-03-04T11:12:51;18.98;;;7.45;;
66721;SDS011;53633;49.932;10.884;2023-03-04T11:15:26;17.90;;;7.38;;
66721;SDS011;53633;49.932;10.884;2023-03-04T11:17:54;18.83;;;6.60;;
66721;SDS011;53633;49.932;10.884;2023-03-04T11:20:26;19.30;;;7.63;;
66721;SDS011;53633;49.932;10.884;2023-03-04T11:22:56;17.92;;;7.35;;
66721;SDS011;53633;49.932;10.884;2023-03-04T11:25:32;17.23;;;6.40;;
66721;SDS011;53633;49.932;10.884;2023-03-04T11:28:02;19.00;;;7.82;;
66721;SDS011;53633;49.932;10.884;2023-03-04T11:30:32;18.42;;;6.55;;
66721;SDS011;53633;49.932;10.884;2023-03-04T11:35:54;21.05;;;7.55;;
66721;SDS011;53633;49.932;10.884;2023-03-04T11:38:26;18.55;;;6.53;;
66721;SDS011;53633;49.932;10.884;2023-03-04T11:41:00;17.20;;;5.63;;
66721;SDS011;53633;49.932;10.884;2023-03-04T11:43:32;19.70;;;6.25;;
66721;SDS011;53633;49.932;10.884;2023-03-04T11:46:05;18.08;;;6.38;;
66721;SDS011;53633;49.932;10.884;2023-03-04T11:48:56;17.13;;;7.10;;
66721;SDS011;53633;49.932;10.884;2023-03-04T11:51:33;20.55;;;6.80;;
66721;SDS011;53633;49.932;10.884;2023-03-04T11:54:12;17.33;;;6.28;;
66721;SDS011;53633;49.932;10.884;2023-03-04T11:56:50;23.17;;;6.93;;
66721;SDS011;53633;49.932;10.884;2023-03-04T12:02:10;14.52;;;5.75;;
66721;SDS011;53633;49.932;10.884;2023-03-04T12:07:36;19.35;;;5.68;;
66721;SDS011;53633;49.932;10.884;2023-03-04T12:10:14;18.17;;;5.22;;
66721;SDS011;53633;49.932;10.884;2023-03-04T12:12:56;16.98;;;5.53;;
66721;SDS011;53633;49.932;10.884;2023-03-04T12:15:37;17.38;;;5.97;;
66721;SDS011;53633;49.932;10.884;2023-03-04T12:18:16;16.70;;;5.50;;
66721;SDS011;53633;49.932;10.884;2023-03-04T12:20:58;32.05;;;10.73;;
66721;SDS011;53633;49.932;10.884;2023-03-04T12:23:48;25.05;;;9.98;;
66721;SDS011;53633;49.932;10.884;2023-03-04T12:26:29;21.15;;;8.18;;
66721;SDS011;53633;49.932;10.884;2023-03-04T12:29:04;21.67;;;8.93;;
66721;SDS011;53633;49.932;10.884;2023-03-04T12:31:37;20.50;;;7.55;;
66721;SDS011;53633;49.932;10.884;2023-03-04T12:40:17;23.27;;;6.78;;
66721;SDS011;53633;49.932;10.884;2023-03-04T12:42:56;15.38;;;5.97;;
66721;SDS011;53633;49.932;10.884;2023-03-04T12:45:31;21.88;;;6.20;;
66721;SDS011;53633;49.932;10.884;2023-03-04T12:48:07;14.43;;;5.50;;
66721;SDS011;53633;49.932;10.884;2023-03-04T12:50:39;15.95;;;5.53;;
66721;SDS011;53633;49.932;10.884;2023-03-04T12:53:16;17.40;;;5.10;;
66721;SDS011;53633;49.932;10.884;2023-03-04T12:55:49;17.45;;;5.40;;
66721;SDS011;53633;49.932;10.884;2023-03-04T12:58:17;12.55;;;4.65;;
66721;SDS011;53633;49.932;10.884;2023-03-04T13:00:56;12.50;;;4.75;;
66721;SDS011;53633;49.932;10.884;2023-03-04T13:03:32;17.85;;;5.63;;
66721;SDS011;53633;49.932;10.884;2023-03-04T13:06:22;15.00;;;4.97;;
66721;SDS011;53633;49.932;10.884;2023-03-04T13:08:58;15.73;;;4.68;;
66721;SDS011;53633;49.932;10.884;2023-03-04T13:11:43;22.00;;;4.97;;
66721;SDS011;53633;49.932;10.884;2023-03-04T13:14:23;12.98;;;3.95;;
66721;SDS011;53633;49.932;10.884;2023-03-04T13:16:53;12.18;;;4.80;;
66721;SDS011;53633;49.932;10.884;2023-03-04T13:19:41;15.52;;;4.28;;
66721;SDS011;53633;49.932;10.884;2023-03-04T13:24:58;12.32;;;4.88;;
66721;SDS011;53633;49.932;10.884;2023-03-04T13:27:48;17.73;;;5.00;;
66721;SDS011;53633;49.932;10.884;2023-03-04T13:33:46;16.33;;;4.32;;
66721;SDS011;53633;49.932;10.884;2023-03-04T13:39:22;20.30;;;4.70;;
66721;SDS011;53633;49.932;10.884;2023-03-04T13:41:54;13.95;;;4.78;;
66721;SDS011;53633;49.932;10.884;2023-03-04T13:44:35;18.48;;;4.57;;
66721;SDS011;53633;49.932;10.884;2023-03-04T13:47:24;11.70;;;4.30;;
66721;SDS011;53633;49.932;10.884;2023-03-04T13:53:20;18.08;;;4.50;;
66721;SDS011;53633;49.932;10.884;2023-03-04T13:58:49;12.30;;;4.30;;
66721;SDS011;53633;49.932;10.884;2023-03-04T14:01:25;16.50;;;5.45;;
66721;SDS011;53633;49.932;10.884;2023-03-04T14:03:53;15.15;;;4.45;;
66721;SDS011;53633;49.932;10.884;2023-03-04T14:06:21;13.20;;;4.93;;
66721;SDS011;53633;49.932;10.884;2023-03-04T14:08:50;13.52;;;4.97;;
66721;SDS011;53633;49.932;10.884;2023-03-04T14:11:21;15.95;;;4.90;;
66721;SDS011;53633;49.932;10.884;2023-03-04T14:13:51;14.98;;;5.00;;
66721;SDS011;53633;49.932;10.884;2023-03-04T14:16:20;17.40;;;4.90;;
66721;SDS011;53633;49.932;10.884;2023-03-04T14:19:02;16.65;;;4.20;;
66721;SDS011;53633;49.932;10.884;2023-03-04T14:21:31;16.40;;;4.22;;
66721;SDS011;53633;49.932;10.884;2023-03-04T14:24:00;14.75;;;4.50;;
66721;SDS011;53633;49.932;10.884;2023-03-04T14:26:28;13.65;;;4.05;;
66721;SDS011;53633;49.932;10.884;2023-03-04T14:28:55;14.38;;;5.13;;
66721;SDS011;53633;49.932;10.884;2023-03-04T14:31:23;11.65;;;3.70;;
66721;SDS011;53633;49.932;10.884;2023-03-04T14:33:52;14.40;;;3.83;;
66721;SDS011;53633;49.932;10.884;2023-03-04T14:36:20;10.38;;;4.20;;
66721;SDS011;53633;49.932;10.884;2023-03-04T14:38:52;12.63;;;3.83;;
66721;SDS011;53633;49.932;10.884;2023-03-04T14:41:23;14.00;;;3.78;;
66721;SDS011;53633;49.932;10.884;2023-03-04T14:43:53;10.38;;;3.85;;
66721;SDS011;53633;49.932;10.884;2023-03-04T14:46:24;11.00;;;3.83;;
66721;SDS011;53633;49.932;10.884;2023-03-04T14:48:56;10.32;;;3.83;;
66721;SDS011;53633;49.932;10.884;2023-03-04T14:51:36;15.23;;;4.72;;
66721;SDS011;53633;49.932;10.884;2023-03-04T14:56:56;17.02;;;5.53;;
66721;SDS011;53633;49.932;10.884;2023-03-04T14:59:28;27.10;;;8.30;;
66721;SDS011;53633;49.932;10.884;2023-03-04T15:02:15;18.52;;;6.22;;
66721;SDS011;53633;49.932;10.884;2023-03-04T15:04:44;23.15;;;8.10;;
66721;SDS011;53633;49.932;10.884;2023-03-04T15:07:13;24.70;;;7.05;;
66721;SDS011;53633;49.932;10.884;2023-03-04T15:09:43;29.15;;;7.60;;